Time;durP1;ratioP1;P1;durP2;ratioP2;P2;SDS_P1;SDS_P2;PMS_P1;PMS_P2;Temp;Humidity;BMP_temperature;BMP_pressure;BME280_temperature;BME280_humidity;BME280_pressure;Samples;Min_cycle;Max_cycle;Signal;HPM_P1;HPM_P2
2024/02/16 00:02:20;;;;;;;53.00;23.87;;;2.50;99.90;;;;;;4453085;28;659818;-76
2024/02/16 00:05:11;;;;;;;49.50;23.23;;;2.40;99.90;;;;;;4416760;28;660008;-76
2024/02/16 00:07:58;;;;;;;55.67;23.33;;;2.40;99.90;;;;;;4427315;28;660341;-76
2024/02/16 00:10:45;;;;;;;48.43;23.47;;;2.50;99.90;;;;;;4448654;28;660386;-76
2024/02/16 00:13:33;;;;;;;50.43;23.20;;;2.40;99.90;;;;;;4429316;28;660341;-76
2024/02/16 00:16:21;;;;;;;54.10;24.27;;;2.50;99.90;;;;;;4449279;28;660629;-76
2024/02/16 00:19:08;;;;;;;51.03;23.43;;;2.40;99.90;;;;;;4412443;28;660336;-76
2024/02/16 00:21:57;;;;;;;47.73;22.00;;;2.40;99.90;;;;;;4449074;28;659475;-76
2024/02/16 00:24:44;;;;;;;59.20;24.50;;;2.40;99.90;;;;;;4430533;28;659879;-76
2024/02/16 00:27:31;;;;;;;51.93;23.30;;;2.30;99.90;;;;;;4448373;28;659564;-76
2024/02/16 00:30:18;;;;;;;56.47;24.65;;;2.30;99.90;;;;;;4429590;28;659869;-76
2024/02/16 00:33:07;;;;;;;59.20;27.23;;;2.30;99.90;;;;;;4448747;28;660096;-76
2024/02/16 00:35:54;;;;;;;51.20;24.57;;;2.30;99.90;;;;;;4426464;28;660986;-76
2024/02/16 00:38:43;;;;;;;65.43;27.10;;;2.40;99.90;;;;;;4449995;28;659194;-76
2024/02/16 00:41:30;;;;;;;53.67;24.20;;;2.50;99.90;;;;;;4429345;28;660089;-76
2024/02/16 00:44:18;;;;;;;53.00;23.87;;;2.50;99.90;;;;;;4439520;28;659777;-76
2024/02/16 00:47:06;;;;;;;48.17;23.37;;;2.50;99.90;;;;;;4432107;28;660463;-76
2024/02/16 00:49:53;;;;;;;54.77;24.73;;;2.60;99.90;;;;;;4393815;28;659710;-76
2024/02/16 00:52:40;;;;;;;53.20;23.20;;;2.50;99.90;;;;;;4428938;28;660223;-76
2024/02/16 00:55:29;;;;;;;50.00;22.92;;;2.50;99.90;;;;;;4428851;28;659677;-76
2024/02/16 00:58:16;;;;;;;54.00;24.47;;;2.40;99.90;;;;;;4452250;28;659683;-76
2024/02/16 01:01:07;;;;;;;76.20;35.40;;;2.30;99.90;;;;;;4429357;28;659870;-76
2024/02/16 01:03:54;;;;;;;93.80;42.20;;;2.30;99.90;;;;;;4412122;28;660179;-76
2024/02/16 01:06:41;;;;;;;84.33;38.23;;;2.20;99.90;;;;;;4452157;28;659792;-76
2024/02/16 01:09:28;;;;;;;74.50;34.43;;;2.30;99.90;;;;;;4429001;28;659873;-76
2024/02/16 01:12:17;;;;;;;69.77;31.63;;;2.30;99.90;;;;;;4447756;28;660935;-76
2024/02/16 01:15:05;;;;;;;61.47;27.73;;;2.30;99.90;;;;;;4424322;28;660529;-77
2024/02/16 01:17:52;;;;;;;50.17;23.57;;;2.20;99.90;;;;;;4431223;28;659633;-77
2024/02/16 01:20:40;;;;;;;53.47;23.50;;;2.10;99.90;;;;;;4431036;28;660285;-76
2024/02/16 01:23:27;;;;;;;78.57;32.57;;;2.10;99.90;;;;;;4415638;28;659923;-77
2024/02/16 01:26:15;;;;;;;80.20;36.03;;;2.10;99.90;;;;;;4451362;28;660389;-77
2024/02/16 01:29:04;;;;;;;86.40;34.27;;;2.10;99.90;;;;;;4447723;28;659665;-77
2024/02/16 01:31:51;;;;;;;74.70;32.23;;;2.00;99.90;;;;;;4451514;28;659820;-77
2024/02/16 01:34:39;;;;;;;73.40;32.43;;;2.20;99.90;;;;;;4428838;28;659754;-76
2024/02/16 01:37:26;;;;;;;82.47;33.20;;;2.20;99.90;;;;;;4429915;28;659405;-77
2024/02/16 01:40:16;;;;;;;76.40;33.83;;;2.10;99.90;;;;;;4428102;28;659556;-77
2024/02/16 01:43:04;;;;;;;68.40;31.73;;;2.00;99.90;;;;;;4424967;28;660094;-77
2024/02/16 01:45:53;;;;;;;46.63;23.83;;;2.00;99.90;;;;;;4450523;28;659534;-77
2024/02/16 01:48:40;;;;;;;58.10;25.97;;;2.00;99.90;;;;;;4428332;28;661011;-77
2024/02/16 01:51:27;;;;;;;44.23;20.83;;;2.10;99.90;;;;;;4438592;28;660218;-77
2024/02/16 01:54:17;;;;;;;43.67;21.30;;;2.10;99.90;;;;;;4447857;28;660335;-77
2024/02/16 01:57:04;;;;;;;41.00;18.00;;;2.10;99.90;;;;;;4423304;28;660246;-77
2024/02/16 01:59:53;;;;;;;41.80;20.70;;;2.20;99.90;;;;;;4445069;28;659851;-77
2024/02/16 02:02:42;;;;;;;34.17;17.47;;;2.10;99.90;;;;;;4423635;28;660573;-77
2024/02/16 02:05:29;;;;;;;35.10;16.77;;;2.10;99.90;;;;;;4423578;28;660056;-77
2024/02/16 02:08:16;;;;;;;38.00;16.90;;;2.30;99.90;;;;;;4447036;28;659625;-77
2024/02/16 02:11:05;;;;;;;34.97;16.30;;;2.30;99.90;;;;;;4423538;28;659947;-77
2024/02/16 02:13:52;;;;;;;34.30;17.23;;;2.30;99.90;;;;;;4436177;28;660326;-77
2024/02/16 02:16:40;;;;;;;41.70;17.27;;;2.20;99.90;;;;;;4446043;28;661066;-77
2024/02/16 02:19:28;;;;;;;33.50;17.03;;;2.20;99.90;;;;;;4449943;28;659503;-78
2024/02/16 02:22:17;;;;;;;34.00;15.83;;;2.20;99.90;;;;;;4425989;28;660039;-77
2024/02/16 02:25:05;;;;;;;28.67;14.93;;;2.20;99.90;;;;;;4422957;28;660873;-77
2024/02/16 02:27:52;;;;;;;53.03;15.53;;;2.20;99.90;;;;;;4437397;28;659358;-77
2024/02/16 02:30:40;;;;;;;33.17;14.43;;;2.10;99.90;;;;;;4446102;28;660276;-77
2024/02/16 02:33:27;;;;;;;27.90;13.60;;;2.10;99.90;;;;;;4449586;28;659566;-77
2024/02/16 02:36:14;;;;;;;33.00;16.03;;;2.10;99.90;;;;;;4422941;28;660556;-77
2024/02/16 02:39:03;;;;;;;33.27;14.43;;;2.20;99.90;;;;;;4448378;28;659205;-77
2024/02/16 02:41:50;;;;;;;34.57;15.33;;;2.10;99.90;;;;;;4422133;28;660251;-77
2024/02/16 02:44:38;;;;;;;31.48;14.10;;;2.20;99.90;;;;;;4430350;28;660133;-77
2024/02/16 02:47:25;;;;;;;27.50;13.23;;;2.20;99.90;;;;;;4445431;28;660727;-77
2024/02/16 02:50:12;;;;;;;27.53;13.13;;;2.20;99.90;;;;;;4434673;28;661966;-77
2024/02/16 02:53:00;;;;;;;24.70;11.63;;;2.10;99.90;;;;;;4445842;28;660676;-77
2024/02/16 02:55:49;;;;;;;22.10;11.43;;;2.00;99.90;;;;;;4444688;28;660225;-77
2024/02/16 02:58:36;;;;;;;19.50;10.23;;;2.10;99.90;;;;;;4446209;28;659994;-77
2024/02/16 03:01:23;;;;;;;21.73;10.03;;;2.00;99.90;;;;;;4419865;28;659368;-77
2024/02/16 03:04:10;;;;;;;19.27;10.07;;;2.00;99.90;;;;;;4450025;28;660268;-77
2024/02/16 03:06:58;;;;;;;23.13;10.47;;;1.90;99.90;;;;;;4409805;28;659739;-77
2024/02/16 03:09:46;;;;;;;21.23;9.73;;;2.00;99.90;;;;;;4446469;28;660461;-78
2024/02/16 03:12:34;;;;;;;20.40;9.87;;;2.00;99.90;;;;;;4428634;28;659494;-77
2024/02/16 03:15:22;;;;;;;21.80;11.47;;;2.00;99.90;;;;;;4447202;28;658668;-78
2024/02/16 03:18:09;;;;;;;21.40;11.30;;;2.10;99.90;;;;;;4426737;28;659505;-78
2024/02/16 03:20:56;;;;;;;26.70;12.23;;;2.00;99.90;;;;;;4432456;28;659621;-78
2024/02/16 03:23:44;;;;;;;29.40;14.20;;;2.00;99.90;;;;;;4407076;28;659531;-78
2024/02/16 03:26:32;;;;;;;25.87;13.23;;;2.00;99.90;;;;;;4449462;28;660210;-77
2024/02/16 03:29:20;;;;;;;46.50;21.73;;;1.90;99.90;;;;;;4427230;28;661133;-78
2024/02/16 03:32:08;;;;;;;66.57;30.03;;;1.90;99.90;;;;;;4426790;28;660323;-77
2024/02/16 03:34:55;;;;;;;94.23;40.03;;;1.80;99.90;;;;;;4445845;28;660506;-78
2024/02/16 03:37:42;;;;;;;91.22;38.25;;;1.80;99.90;;;;;;4432347;28;659578;-78
2024/02/16 03:40:30;;;;;;;73.70;30.53;;;1.80;99.90;;;;;;4445765;28;661025;-78
2024/02/16 03:43:17;;;;;;;69.10;30.53;;;1.90;99.90;;;;;;4443117;28;660165;-77
2024/02/16 03:46:06;;;;;;;61.23;29.63;;;2.00;99.90;;;;;;4430761;28;661457;-78
2024/02/16 03:48:53;;;;;;;51.03;25.40;;;2.20;99.90;;;;;;4408306;28;659604;-78
2024/02/16 03:51:41;;;;;;;55.00;25.40;;;2.20;99.90;;;;;;4444785;28;660361;-78
2024/02/16 03:54:29;;;;;;;49.67;23.93;;;2.20;99.90;;;;;;4425957;28;659696;-78
2024/02/16 03:57:16;;;;;;;33.43;16.27;;;2.50;99.90;;;;;;4449710;28;659451;-78
2024/02/16 04:00:05;;;;;;;31.10;15.57;;;2.60;99.90;;;;;;4425418;28;659565;-77
2024/02/16 04:02:54;;;;;;;31.57;15.73;;;2.60;99.90;;;;;;4442421;28;659604;-78
2024/02/16 04:05:41;;;;;;;31.00;15.63;;;2.60;99.90;;;;;;4464676;28;659807;-78
2024/02/16 04:08:28;;;;;;;33.70;16.17;;;2.60;99.90;;;;;;4442648;28;659894;-78
2024/02/16 04:11:16;;;;;;;35.43;16.17;;;2.60;99.90;;;;;;4461556;28;660016;-78
2024/02/16 04:14:03;;;;;;;29.63;14.97;;;2.50;99.90;;;;;;4442285;28;659697;-79
2024/02/16 04:16:50;;;;;;;30.00;14.67;;;2.60;99.90;;;;;;4461608;28;659781;-78
2024/02/16 04:19:39;;;;;;;27.73;13.98;;;2.70;99.90;;;;;;4416421;28;659655;-78
2024/02/16 04:22:26;;;;;;;26.00;14.30;;;2.80;99.90;;;;;;4449027;28;659692;-78
2024/02/16 04:25:13;;;;;;;28.50;13.97;;;2.70;99.90;;;;;;4411454;28;659794;-78
2024/02/16 04:28:01;;;;;;;38.03;14.98;;;2.70;99.90;;;;;;4451670;28;660046;-79
2024/02/16 04:30:48;;;;;;;31.90;15.30;;;2.70;99.90;;;;;;4428669;28;659564;-79
2024/02/16 04:33:35;;;;;;;30.37;13.87;;;2.50;99.90;;;;;;4446502;28;660514;-78
2024/02/16 04:36:24;;;;;;;34.80;16.33;;;2.40;99.90;;;;;;4431732;28;660144;-78
2024/02/16 04:39:12;;;;;;;32.13;16.33;;;2.40;99.90;;;;;;4450115;28;659894;-79
2024/02/16 04:41:59;;;;;;;48.03;22.70;;;2.30;99.90;;;;;;4428751;28;659895;-78
2024/02/16 04:44:46;;;;;;;34.83;17.77;;;2.40;99.90;;;;;;4451191;28;659982;-78
2024/02/16 04:47:33;;;;;;;30.97;14.70;;;2.30;99.90;;;;;;4428719;28;660159;-78
2024/02/16 04:50:21;;;;;;;25.70;12.10;;;2.30;99.90;;;;;;4435997;28;660744;-79
2024/02/16 04:53:09;;;;;;;24.23;12.73;;;2.40;99.90;;;;;;4419613;28;660000;-79
2024/02/16 04:55:57;;;;;;;30.63;15.37;;;2.50;99.90;;;;;;4446448;28;659324;-78
2024/02/16 04:58:44;;;;;;;27.30;13.90;;;2.60;99.90;;;;;;4428218;28;659933;-78
2024/02/16 05:01:31;;;;;;;23.37;11.80;;;2.60;99.90;;;;;;4447138;28;659447;-78
2024/02/16 05:04:19;;;;;;;28.33;13.75;;;2.60;99.90;;;;;;4424328;28;659735;-79
2024/02/16 05:07:07;;;;;;;26.33;12.10;;;2.60;99.90;;;;;;4450460;28;659602;-78
2024/02/16 05:09:58;;;;;;;20.10;11.93;;;2.70;99.90;;;;;;4424782;28;661660;-78
2024/02/16 05:12:45;;;;;;;27.10;12.37;;;2.70;99.90;;;;;;4424030;28;661182;-79
2024/02/16 05:15:32;;;;;;;24.10;12.40;;;2.60;99.90;;;;;;4432414;28;659435;-78
2024/02/16 05:18:22;;;;;;;27.93;12.50;;;2.60;99.90;;;;;;4451178;28;660083;-78
2024/02/16 05:21:09;;;;;;;29.10;14.03;;;2.50;99.90;;;;;;4424663;28;660284;-78
2024/02/16 05:23:56;;;;;;;28.67;13.63;;;2.60;99.90;;;;;;4451149;28;659599;-79
2024/02/16 05:26:45;;;;;;;27.23;13.73;;;2.60;99.90;;;;;;4425713;28;660408;-79
2024/02/16 05:29:32;;;;;;;26.60;13.13;;;2.40;99.90;;;;;;4431857;28;659791;-79
2024/02/16 05:32:20;;;;;;;36.83;13.83;;;2.40;99.90;;;;;;4449611;28;659616;-79
2024/02/16 05:35:11;;;;;;;31.83;15.70;;;2.30;99.90;;;;;;4444719;28;659565;-78
2024/02/16 05:38:00;;;;;;;35.00;16.17;;;2.40;99.90;;;;;;4426972;28;660031;-79
2024/02/16 05:40:56;;;;;;;35.27;19.07;;;2.50;99.90;;;;;;4427554;28;660421;-78
2024/02/16 05:43:45;;;;;;;49.33;25.20;;;2.60;99.90;;;;;;4426410;28;659793;-78
2024/02/16 05:46:33;;;;;;;53.35;27.02;;;2.60;99.90;;;;;;4431312;28;660016;-78
2024/02/16 05:49:20;;;;;;;49.73;23.43;;;2.60;99.90;;;;;;4450675;28;659967;-79
2024/02/16 05:55:11;;;;;;;49.47;21.00;;;2.70;99.90;;;;;;4424016;28;659789;-79
2024/02/16 05:57:59;;;;;;;43.53;19.23;;;2.80;99.90;;;;;;4424721;28;659942;-79
2024/02/16 06:00:48;;;;;;;43.10;17.23;;;2.80;99.90;;;;;;4446670;28;659562;-79
2024/02/16 06:03:35;;;;;;;40.37;17.40;;;2.90;99.90;;;;;;4428299;28;660455;-78
2024/02/16 06:06:23;;;;;;;41.03;17.00;;;3.00;99.90;;;;;;4410208;28;659849;-78
2024/02/16 06:09:10;;;;;;;35.90;16.70;;;3.00;99.90;;;;;;4451614;28;660543;-79
2024/02/16 06:11:58;;;;;;;26.87;13.47;;;3.00;99.90;;;;;;4430728;28;659751;-79
2024/02/16 06:14:45;;;;;;;23.03;11.87;;;3.00;99.90;;;;;;4450482;28;661019;-79
2024/02/16 06:17:34;;;;;;;22.93;11.63;;;3.00;99.90;;;;;;4409501;28;659718;-78
2024/02/16 06:20:21;;;;;;;24.60;13.10;;;3.10;99.90;;;;;;4446288;28;659407;-78
2024/02/16 06:23:09;;;;;;;29.53;12.60;;;3.30;99.90;;;;;;4428225;28;660136;-79
2024/02/16 06:25:58;;;;;;;20.63;11.20;;;3.30;99.90;;;;;;4445690;28;659636;-79
2024/02/16 06:28:45;;;;;;;27.17;12.17;;;3.40;99.90;;;;;;4449969;28;659733;-79
2024/02/16 06:31:33;;;;;;;18.80;10.20;;;3.30;99.90;;;;;;4429640;28;659313;-79
2024/02/16 06:34:21;;;;;;;26.33;13.13;;;3.40;99.90;;;;;;4451075;28;659632;-79
2024/02/16 06:37:09;;;;;;;18.13;9.57;;;3.50;99.90;;;;;;4423999;28;659683;-79
2024/02/16 06:39:56;;;;;;;16.57;8.53;;;3.60;99.90;;;;;;4447922;28;659005;-79
2024/02/16 06:42:43;;;;;;;17.07;9.17;;;3.70;99.90;;;;;;4428679;28;658966;-79
2024/02/16 06:45:30;;;;;;;20.10;9.83;;;3.70;99.90;;;;;;4450237;28;658970;-79
2024/02/16 06:48:17;;;;;;;16.83;8.07;;;3.80;99.90;;;;;;4410521;28;659478;-79
2024/02/16 06:51:06;;;;;;;22.07;10.13;;;3.90;99.90;;;;;;4423296;28;659883;-79
2024/02/16 06:53:53;;;;;;;17.37;9.13;;;4.10;99.90;;;;;;4408842;28;659938;-77
2024/02/16 06:56:41;;;;;;;17.97;9.43;;;4.30;99.90;;;;;;4448025;28;658878;-77
2024/02/16 06:59:28;;;;;;;16.13;8.77;;;4.40;99.90;;;;;;4428499;28;658923;-76
2024/02/16 07:02:17;;;;;;;16.37;8.27;;;4.50;99.90;;;;;;4446744;28;659178;-76
2024/02/16 07:05:05;;;;;;;17.50;8.73;;;4.70;99.90;;;;;;4424718;28;659722;-76
2024/02/16 07:07:54;;;;;;;16.40;8.52;;;4.80;99.90;;;;;;4431578;28;658879;-76
2024/02/16 07:10:41;;;;;;;15.93;8.07;;;4.80;99.90;;;;;;4449965;28;658724;-77
2024/02/16 07:13:28;;;;;;;18.00;8.50;;;4.90;99.90;;;;;;4428212;28;658733;-77
2024/02/16 07:16:16;;;;;;;18.50;9.40;;;5.00;99.90;;;;;;4447890;28;658827;-76
2024/02/16 07:19:05;;;;;;;19.40;9.70;;;5.00;99.90;;;;;;4426284;28;658616;-77
2024/02/16 07:21:52;;;;;;;21.73;10.70;;;5.10;99.90;;;;;;4450913;28;658400;-77
2024/02/16 07:24:40;;;;;;;21.87;9.30;;;5.20;99.90;;;;;;4423278;28;661172;-76
2024/02/16 07:27:28;;;;;;;17.60;9.10;;;5.30;99.90;;;;;;4428063;28;659128;-77
2024/02/16 07:30:15;;;;;;;16.53;10.00;;;5.30;99.90;;;;;;4429531;28;659203;-77
2024/02/16 07:33:03;;;;;;;22.93;12.60;;;5.50;99.90;;;;;;4426474;28;659648;-76
2024/02/16 07:35:50;;;;;;;20.70;12.23;;;5.60;99.90;;;;;;4447225;28;660632;-77
2024/02/16 07:38:37;;;;;;;21.97;11.40;;;5.70;99.90;;;;;;4434671;28;659747;-77
2024/02/16 07:41:27;;;;;;;29.97;14.77;;;5.80;99.90;;;;;;4429095;28;660101;-76
2024/02/16 07:44:14;;;;;;;25.67;12.63;;;6.00;99.90;;;;;;4422846;28;660384;-77
2024/02/16 07:47:01;;;;;;;26.90;13.27;;;6.10;99.90;;;;;;4449108;28;659901;-77
2024/02/16 07:49:49;;;;;;;28.67;14.53;;;6.30;99.90;;;;;;4426695;28;660036;-76
2024/02/16 07:52:36;;;;;;;37.97;19.20;;;6.50;85.20;;;;;;4438651;28;659982;-77
2024/02/16 07:55:24;;;;;;;39.73;19.80;;;6.60;1.00;;;;;;4418637;28;659596;-76
2024/02/16 07:58:12;;;;;;;27.73;14.10;;;6.70;1.00;;;;;;4454582;28;659225;-77
2024/02/16 08:01:00;;;;;;;31.23;15.53;;;6.90;99.90;;;;;;4431198;28;658910;-76
2024/02/16 08:03:47;;;;;;;24.77;13.33;;;7.00;19.80;;;;;;4447408;28;659763;-76
2024/02/16 08:06:35;;;;;;;34.87;19.23;;;7.30;1.00;;;;;;4453915;28;660763;-76
2024/02/16 08:09:22;;;;;;;22.53;12.07;;;7.50;99.90;;;;;;4449341;28;659105;-76
2024/02/16 08:12:10;;;;;;;31.50;15.77;;;7.70;1.00;;;;;;4435834;28;660578;-76
2024/02/16 08:14:59;;;;;;;32.77;14.30;;;7.90;99.90;;;;;;4437059;28;658388;-76
2024/02/16 08:17:46;;;;;;;29.67;15.70;;;8.10;99.90;;;;;;4426428;28;659787;-76
2024/02/16 08:20:33;;;;;;;22.60;12.30;;;8.20;1.00;;;;;;4412508;28;659980;-76
2024/02/16 08:23:21;;;;;;;20.70;10.55;;;8.40;1.00;;;;;;4432727;28;660418;-76
2024/02/16 08:26:08;;;;;;;16.40;8.30;;;8.70;99.90;;;;;;4431531;28;659678;-76
2024/02/16 08:28:56;;;;;;;18.20;9.40;;;8.80;1.00;;;;;;4449275;28;658944;-76
2024/02/16 08:31:45;;;;;;;16.37;8.70;;;9.00;1.00;;;;;;4432087;28;657603;-76
2024/02/16 08:34:32;;;;;;;19.67;8.97;;;9.30;99.90;;;;;;4451885;28;657639;-76
2024/02/16 08:37:20;;;;;;;15.17;7.77;;;9.40;99.90;;;;;;4453610;28;658288;-78
2024/02/16 08:40:14;;;;;;;16.43;9.03;;;9.40;1.00;;;;;;4449874;28;658086;-78
2024/02/16 08:43:02;;;;;;;16.80;8.77;;;9.60;1.00;;;;;;4414884;28;658248;-78
2024/02/16 08:45:50;;;;;;;17.10;8.17;;;9.90;1.00;;;;;;4430372;28;658198;-78
2024/02/16 08:48:38;;;;;;;17.50;7.63;;;9.80;1.00;;;;;;4437595;28;657728;-78
2024/02/16 08:51:26;;;;;;;13.17;6.87;;;9.90;44.90;;;;;;4426729;28;658854;-78
2024/02/16 08:54:13;;;;;;;13.53;7.23;;;10.00;1.00;;;;;;4415377;28;658423;-77
2024/02/16 08:57:00;;;;;;;14.33;6.60;;;10.10;1.00;;;;;;4450126;28;659661;-77
2024/02/16 08:59:48;;;;;;;14.43;7.17;;;10.50;3.30;;;;;;4430629;28;658995;-77
2024/02/16 09:02:35;;;;;;;14.37;6.67;;;10.80;1.00;;;;;;4449946;28;659933;-78
2024/02/16 09:05:24;;;;;;;11.40;6.10;;;10.70;1.00;;;;;;4426495;28;658538;-77
2024/02/16 09:08:11;;;;;;;12.57;6.13;;;10.80;99.90;;;;;;4452840;28;659330;-77
2024/02/16 09:10:58;;;;;;;15.23;7.27;;;11.00;1.00;;;;;;4428621;28;659691;-77
2024/02/16 09:13:46;;;;;;;12.23;6.53;;;11.30;1.00;;;;;;4432330;28;659357;-77
2024/02/16 09:16:33;;;;;;;12.10;6.30;;;11.50;1.00;;;;;;4412685;28;658603;-77
2024/02/16 09:19:20;;;;;;;14.53;7.30;;;11.30;99.90;;;;;;4435243;28;658925;-77
2024/02/16 09:22:09;;;;;;;15.87;7.73;;;11.50;99.90;;;;;;4410172;28;660383;-76
2024/02/16 09:24:59;;;;;;;12.73;6.57;;;11.30;1.00;;;;;;4434037;28;659805;-77
2024/02/16 09:27:46;;;;;;;17.90;7.17;;;11.60;1.00;;;;;;4430114;28;658789;-76
2024/02/16 09:30:34;;;;;;;14.53;8.00;;;12.10;1.00;;;;;;4429711;28;658834;-77
2024/02/16 09:33:21;;;;;;;19.23;7.50;;;12.30;99.90;;;;;;4448901;28;659293;-77
2024/02/16 09:36:09;;;;;;;20.97;7.97;;;12.90;99.90;;;;;;4428055;28;660064;-76
2024/02/16 09:38:58;;;;;;;18.40;8.30;;;12.90;1.00;;;;;;4451663;28;660126;-77
2024/02/16 09:41:45;;;;;;;16.97;9.37;;;12.90;1.00;;;;;;4430011;28;660076;-77
2024/02/16 09:44:32;;;;;;;22.30;9.63;;;13.00;1.00;;;;;;4434775;28;658701;-77
2024/02/16 09:47:20;;;;;;;15.27;7.67;;;12.80;75.20;;;;;;4452727;28;658830;-77
2024/02/16 09:50:09;;;;;;;14.03;7.50;;;12.90;99.90;;;;;;4443883;28;660068;-77
2024/02/16 09:52:57;;;;;;;15.43;7.23;;;12.90;99.90;;;;;;4449615;28;659598;-77
2024/02/16 09:55:46;;;;;;;17.80;8.50;;;12.80;1.00;;;;;;4428335;28;659970;-77
2024/02/16 09:58:33;;;;;;;18.17;7.13;;;13.10;99.90;;;;;;4411729;28;658731;-77
2024/02/16 10:01:21;;;;;;;14.17;7.53;;;13.20;1.00;;;;;;4448409;28;660241;-76
2024/02/16 10:04:08;;;;;;;16.63;7.13;;;13.30;99.90;;;;;;4412084;28;658809;-74
2024/02/16 10:06:57;;;;;;;14.03;7.37;;;13.90;1.00;;;;;;4446997;28;661002;-74
2024/02/16 10:09:44;;;;;;;14.70;7.10;;;14.30;99.90;;;;;;4429527;28;658978;-74
2024/02/16 10:12:33;;;;;;;13.60;7.17;;;14.50;1.00;;;;;;4451138;28;660077;-74
2024/02/16 10:15:21;;;;;;;16.20;8.00;;;14.80;1.00;;;;;;4429266;28;659320;-74
2024/02/16 10:18:08;;;;;;;13.10;7.27;;;14.80;94.90;;;;;;4429481;28;658757;-74
2024/02/16 10:20:56;;;;;;;18.07;8.27;;;15.10;1.00;;;;;;4446946;28;660136;-74
2024/02/16 10:23:43;;;;;;;18.00;9.13;;;15.70;99.90;;;;;;4428847;28;659018;-74
2024/02/16 10:26:30;;;;;;;15.23;8.43;;;15.70;99.90;;;;;;4433121;28;659960;-74
2024/02/16 10:29:20;;;;;;;16.50;7.67;;;16.10;99.90;;;;;;4427641;28;660277;-74
2024/02/16 10:32:07;;;;;;;18.93;8.77;;;16.30;99.90;;;;;;4427394;28;659734;-74
2024/02/16 10:34:55;;;;;;;14.37;7.80;;;15.90;1.00;;;;;;4429499;28;661511;-74
2024/02/16 10:37:43;;;;;;;13.93;7.77;;;15.90;99.90;;;;;;4430207;28;659192;-74
2024/02/16 10:40:30;;;;;;;13.30;7.73;;;16.30;99.90;;;;;;4447859;28;660275;-74
2024/02/16 10:43:18;;;;;;;14.70;7.33;;;16.60;99.90;;;;;;4410025;28;659408;-74
2024/02/16 10:46:07;;;;;;;14.93;7.53;;;16.50;99.90;;;;;;4448917;28;660414;-74
2024/02/16 10:48:54;;;;;;;18.43;7.97;;;17.00;56.30;;;;;;4423885;28;660260;-74
2024/02/16 10:51:43;;;;;;;14.70;7.90;;;17.20;1.00;;;;;;4444025;28;659828;-74
2024/02/16 10:54:31;;;;;;;15.83;7.00;;;17.70;1.00;;;;;;4421927;28;660004;-74
2024/02/16 10:57:18;;;;;;;15.30;7.33;;;16.70;1.00;;;;;;4428401;28;658724;-74
2024/02/16 11:00:10;;;;;;;15.97;6.37;;;16.80;99.90;;;;;;4429336;28;658905;-74
2024/02/16 11:03:00;;;;;;;11.37;5.90;;;17.30;1.00;;;;;;4413728;28;659742;-74
2024/02/16 11:05:47;;;;;;;13.53;6.97;;;17.00;66.80;;;;;;4445461;28;659177;-74
2024/02/16 11:08:39;;;;;;;12.80;6.50;;;17.60;1.00;;;;;;4446064;28;660613;-74
2024/02/16 11:11:26;;;;;;;14.17;6.60;;;17.80;1.00;;;;;;4410827;28;658583;-75
2024/02/16 11:14:17;;;;;;;15.17;6.57;;;18.60;1.00;;;;;;4428087;28;658488;-74
2024/02/16 11:17:09;;;;;;;30.47;11.23;;;18.60;1.00;;;;;;4427706;28;659276;-75
2024/02/16 11:19:58;;;;;;;10.80;6.17;;;18.20;1.00;;;;;;4422594;28;660125;-75
2024/02/16 11:22:45;;;;;;;15.40;6.10;;;18.40;1.00;;;;;;4424104;28;659833;-75
2024/02/16 11:25:33;;;;;;;12.67;6.27;;;18.90;1.00;;;;;;4436553;28;659264;-74
2024/02/16 11:28:20;;;;;;;11.47;5.50;;;18.80;1.00;;;;;;4446931;28;660011;-75
2024/02/16 11:31:08;;;;;;;13.83;5.47;;;19.00;1.00;;;;;;4437713;28;659644;-75
2024/02/16 11:33:55;;;;;;;14.30;5.97;;;19.50;1.00;;;;;;4446930;28;660106;-75
2024/02/16 11:36:44;;;;;;;12.77;5.90;;;19.30;1.00;;;;;;4422641;28;659009;-75
2024/02/16 11:39:31;;;;;;;8.27;4.87;;;19.10;1.00;;;;;;4446455;28;658831;-75
2024/02/16 11:42:20;;;;;;;7.83;4.17;;;19.50;1.00;;;;;;4428667;28;657894;-76
2024/02/16 11:45:10;;;;;;;11.57;4.90;;;18.50;1.00;;;;;;4385700;28;1182171;-76
2024/02/16 11:48:09;;;;;;;9.17;4.83;;;18.80;1.00;;;;;;4401059;28;660231;-76
2024/02/16 11:51:00;;;;;;;9.63;4.70;;;18.80;1.00;;;;;;4419386;28;658168;-76
2024/02/16 11:53:57;;;;;;;5.97;3.07;;;19.10;1.00;;;;;;4389127;28;658168;-76
2024/02/16 11:56:45;;;;;;;3.27;2.27;;;18.90;1.00;;;;;;4401727;28;658058;-76
2024/02/16 11:59:32;;;;;;;5.40;2.23;;;18.70;1.00;;;;;;4434685;28;658763;-76
2024/02/16 12:02:22;;;;;;;2.53;1.60;;;18.20;1.00;;;;;;4450224;28;657390;-76
2024/02/16 12:05:09;;;;;;;4.37;2.57;;;17.90;1.00;;;;;;4428496;28;658221;-76
2024/02/16 12:07:59;;;;;;;7.50;3.17;;;17.80;1.00;;;;;;4450559;28;657820;-76
2024/02/16 12:10:48;;;;;;;6.63;3.17;;;17.90;1.00;;;;;;4428420;28;658654;-76
2024/02/16 12:13:36;;;;;;;7.50;3.37;;;18.40;1.00;;;;;;4427422;28;658089;-76
2024/02/16 12:16:23;;;;;;;6.47;3.73;;;19.10;1.00;;;;;;4427059;28;657680;-76
2024/02/16 12:19:10;;;;;;;6.30;3.40;;;18.30;1.00;;;;;;4433045;28;657575;-75
2024/02/16 12:21:58;;;;;;;7.00;3.87;;;18.90;1.00;;;;;;4411662;28;657342;-75
2024/02/16 12:24:45;;;;;;;8.77;4.30;;;19.10;1.00;;;;;;4431070;28;657465;-76
2024/02/16 12:27:34;;;;;;;8.77;4.40;;;20.30;1.00;;;;;;4427933;28;657817;-76
2024/02/16 12:30:22;;;;;;;8.75;4.10;;;19.70;1.00;;;;;;4429170;28;658195;-76
2024/02/16 12:33:09;;;;;;;7.53;3.97;;;19.90;1.00;;;;;;4427366;28;658136;-76
2024/02/16 12:35:56;;;;;;;7.90;3.90;;;19.80;1.00;;;;;;4447095;28;658493;-76
2024/02/16 12:38:43;;;;;;;8.57;4.00;;;20.90;1.00;;;;;;4410856;28;657548;-76
2024/02/16 12:41:31;;;;;;;6.57;3.60;;;19.90;1.00;;;;;;4427227;28;658308;-75
2024/02/16 12:44:19;;;;;;;8.53;3.50;;;19.10;1.00;;;;;;4395797;28;658213;-76
2024/02/16 12:47:06;;;;;;;9.20;3.93;;;20.10;1.00;;;;;;4415067;28;658228;-76
2024/02/16 12:49:54;;;;;;;7.07;3.70;;;20.80;1.00;;;;;;4403926;28;657724;-76
2024/02/16 12:52:42;;;;;;;9.13;4.23;;;21.70;1.00;;;;;;4430954;28;657185;-76
2024/02/16 12:55:30;;;;;;;6.30;3.77;;;22.10;1.00;;;;;;4424697;28;658255;-76
2024/02/16 12:58:17;;;;;;;6.53;3.50;;;21.30;1.00;;;;;;4436050;28;657209;-75
2024/02/16 13:01:07;;;;;;;8.90;4.07;;;20.50;1.00;;;;;;4453911;28;657406;-76
2024/02/16 13:03:54;;;;;;;5.43;3.10;;;21.30;1.00;;;;;;4430847;28;657693;-76
2024/02/16 13:06:41;;;;;;;7.20;3.60;;;21.70;1.00;;;;;;4450007;28;658324;-75
2024/02/16 13:09:28;;;;;;;4.73;3.07;;;21.60;1.00;;;;;;4430666;28;657473;-75
2024/02/16 13:12:16;;;;;;;9.07;2.90;;;20.60;1.00;;;;;;4449319;28;658239;-77
2024/02/16 13:15:03;;;;;;;4.60;2.83;;;21.40;1.00;;;;;;4430635;28;657846;-75
2024/02/16 13:17:52;;;;;;;6.57;2.90;;;21.60;1.00;;;;;;4449823;28;658302;-75
2024/02/16 13:20:39;;;;;;;6.97;3.23;;;21.10;1.00;;;;;;4427219;28;659506;-75
2024/02/16 13:23:28;;;;;;;4.70;3.23;;;20.40;1.00;;;;;;4453207;28;657492;-75
2024/02/16 13:26:16;;;;;;;8.70;3.27;;;20.20;1.00;;;;;;4426351;28;659303;-75
2024/02/16 13:29:04;;;;;;;5.03;3.27;;;21.50;1.00;;;;;;4429813;28;657110;-75
2024/02/16 13:31:51;;;;;;;4.93;2.90;;;21.20;1.00;;;;;;4450886;28;657831;-75
2024/02/16 13:34:40;;;;;;;6.80;2.90;;;20.00;1.00;;;;;;4430095;28;658515;-75
2024/02/16 13:37:27;;;;;;;5.17;2.90;;;19.40;1.00;;;;;;4446131;28;658040;-75
2024/02/16 13:40:15;;;;;;;8.00;2.93;;;19.00;1.00;;;;;;4449237;28;657955;-75
2024/02/16 13:43:03;;;;;;;5.57;3.10;;;19.50;1.00;;;;;;4448536;28;657981;-75
2024/02/16 13:45:51;;;;;;;8.00;3.33;;;19.60;1.00;;;;;;4449424;28;658300;-76
2024/02/16 13:48:41;;;;;;;7.33;3.13;;;19.00;1.00;;;;;;4429299;28;658270;-75
2024/02/16 13:51:29;;;;;;;6.80;3.30;;;19.20;1.00;;;;;;4413216;28;658126;-75
2024/02/16 13:54:17;;;;;;;6.33;3.97;;;19.70;1.00;;;;;;4447799;28;658021;-75
2024/02/16 13:57:05;;;;;;;9.60;3.60;;;20.30;1.00;;;;;;4426075;28;658380;-75
2024/02/16 13:59:52;;;;;;;8.13;3.80;;;19.80;1.00;;;;;;4444053;28;657993;-75
2024/02/16 14:02:40;;;;;;;6.50;3.17;;;20.10;1.00;;;;;;4448876;28;658070;-75
2024/02/16 14:05:27;;;;;;;9.23;3.77;;;20.30;1.00;;;;;;4448083;28;657412;-75
2024/02/16 14:08:18;;;;;;;6.83;3.40;;;20.10;1.00;;;;;;4448574;28;658988;-75
2024/02/16 14:11:05;;;;;;;5.87;3.40;;;19.90;1.00;;;;;;4429533;28;658068;-75
2024/02/16 14:13:52;;;;;;;5.93;3.30;;;20.20;1.00;;;;;;4434079;28;657835;-75
2024/02/16 14:16:40;;;;;;;7.03;3.30;;;19.30;1.00;;;;;;4452474;28;658044;-75
2024/02/16 14:19:29;;;;;;;6.07;3.13;;;18.10;1.00;;;;;;4444135;28;658199;-75
2024/02/16 14:22:16;;;;;;;4.67;2.73;;;18.50;1.00;;;;;;4451811;28;657506;-75